sensor_id;sensor_type;location;lat;lon;timestamp;pressure;altitude;pressure_sealevel;temperature;humidity
70374;BME280;57792;49.198;7.890;2022-08-03T00:00:53;98855.91;;;17.88;57.81
70374;BME280;57792;49.198;7.890;2022-08-03T00:01:53;98844.91;;;17.91;57.87
70374;BME280;57792;49.198;7.890;2022-08-03T00:02:54;98861.41;;;17.86;57.88
70374;BME280;57792;49.198;7.890;2022-08-03T00:03:54;98862.56;;;17.82;58.10
70374;BME280;57792;49.198;7.890;2022-08-03T00:04:55;98866.38;;;17.79;58.24
70374;BME280;57792;49.198;7.890;2022-08-03T00:05:55;98859.13;;;17.67;58.36
70374;BME280;57792;49.198;7.890;2022-08-03T00:06:55;98857.38;;;17.66;58.77
70374;BME280;57792;49.198;7.890;2022-08-03T00:07:56;98852.16;;;17.51;59.42
70374;BME280;57792;49.198;7.890;2022-08-03T00:08:56;98859.84;;;17.57;58.70
70374;BME280;57792;49.198;7.890;2022-08-03T00:09:56;98863.00;;;17.63;58.50
70374;BME280;57792;49.198;7.890;2022-08-03T00:10:57;98857.03;;;17.58;58.73
70374;BME280;57792;49.198;7.890;2022-08-03T00:11:57;98867.81;;;17.58;58.80
70374;BME280;57792;49.198;7.890;2022-08-03T00:12:58;98858.31;;;17.53;59.02
70374;BME280;57792;49.198;7.890;2022-08-03T00:13:59;98859.94;;;17.55;58.70
70374;BME280;57792;49.198;7.890;2022-08-03T00:14:59;98860.72;;;17.57;58.68
70374;BME280;57792;49.198;7.890;2022-08-03T00:15:59;98859.75;;;17.58;58.58
70374;BME280;57792;49.198;7.890;2022-08-03T00:17:00;98851.53;;;17.60;58.52
70374;BME280;57792;49.198;7.890;2022-08-03T00:18:00;98862.34;;;17.60;58.67
70374;BME280;57792;49.198;7.890;2022-08-03T00:19:01;98853.38;;;17.59;58.72
70374;BME280;57792;49.198;7.890;2022-08-03T00:20:02;98855.00;;;17.62;58.51
70374;BME280;57792;49.198;7.890;2022-08-03T00:21:03;98851.53;;;17.60;58.57
70374;BME280;57792;49.198;7.890;2022-08-03T00:22:04;98845.94;;;17.63;58.44
70374;BME280;57792;49.198;7.890;2022-08-03T00:23:04;98849.50;;;17.63;58.52
70374;BME280;57792;49.198;7.890;2022-08-03T00:24:05;98853.16;;;17.62;58.56
70374;BME280;57792;49.198;7.890;2022-08-03T00:25:06;98854.13;;;17.61;58.67
70374;BME280;57792;49.198;7.890;2022-08-03T00:26:06;98855.31;;;17.57;58.96
70374;BME280;57792;49.198;7.890;2022-08-03T00:27:07;98844.44;;;17.59;58.64
70374;BME280;57792;49.198;7.890;2022-08-03T00:28:07;98847.31;;;17.56;58.76
70374;BME280;57792;49.198;7.890;2022-08-03T00:29:08;98852.72;;;17.56;58.87
70374;BME280;57792;49.198;7.890;2022-08-03T00:30:08;98845.50;;;17.56;58.84
70374;BME280;57792;49.198;7.890;2022-08-03T00:31:09;98843.56;;;17.58;58.52
70374;BME280;57792;49.198;7.890;2022-08-03T00:32:09;98840.00;;;17.58;58.52
70374;BME280;57792;49.198;7.890;2022-08-03T00:33:09;98848.28;;;17.55;58.77
70374;BME280;57792;49.198;7.890;2022-08-03T00:34:10;98839.34;;;17.54;58.36
70374;BME280;57792;49.198;7.890;2022-08-03T00:35:10;98849.56;;;17.49;58.86
70374;BME280;57792;49.198;7.890;2022-08-03T00:36:11;98845.56;;;17.42;59.12
70374;BME280;57792;49.198;7.890;2022-08-03T00:37:12;98849.53;;;17.36;59.71
70374;BME280;57792;49.198;7.890;2022-08-03T00:38:12;98850.38;;;17.37;59.15
70374;BME280;57792;49.198;7.890;2022-08-03T00:39:12;98845.19;;;17.34;59.32
70374;BME280;57792;49.198;7.890;2022-08-03T00:40:14;98840.66;;;17.34;59.34
70374;BME280;57792;49.198;7.890;2022-08-03T00:41:14;98840.47;;;17.37;59.21
70374;BME280;57792;49.198;7.890;2022-08-03T00:42:15;98842.31;;;17.37;59.19
70374;BME280;57792;49.198;7.890;2022-08-03T00:43:15;98847.47;;;17.40;59.24
70374;BME280;57792;49.198;7.890;2022-08-03T00:44:16;98842.09;;;17.40;59.40
70374;BME280;57792;49.198;7.890;2022-08-03T00:45:17;98835.28;;;17.34;59.38
70374;BME280;57792;49.198;7.890;2022-08-03T00:46:18;98845.88;;;17.37;59.10
70374;BME280;57792;49.198;7.890;2022-08-03T00:47:21;98837.66;;;17.39;58.90
70374;BME280;57792;49.198;7.890;2022-08-03T00:48:21;98840.66;;;17.34;59.15
70374;BME280;57792;49.198;7.890;2022-08-03T00:49:22;98839.16;;;17.30;59.36
70374;BME280;57792;49.198;7.890;2022-08-03T00:50:25;98841.19;;;17.27;59.37
70374;BME280;57792;49.198;7.890;2022-08-03T00:51:26;98845.31;;;17.32;59.36
70374;BME280;57792;49.198;7.890;2022-08-03T00:52:27;98844.75;;;17.27;59.67
70374;BME280;57792;49.198;7.890;2022-08-03T00:53:27;98844.28;;;17.21;59.86
70374;BME280;57792;49.198;7.890;2022-08-03T00:54:28;98838.03;;;17.20;59.57
70374;BME280;57792;49.198;7.890;2022-08-03T00:55:29;98848.03;;;17.18;59.95
70374;BME280;57792;49.198;7.890;2022-08-03T00:56:30;98849.44;;;17.11;60.08
70374;BME280;57792;49.198;7.890;2022-08-03T00:57:31;98837.69;;;17.12;59.81
70374;BME280;57792;49.198;7.890;2022-08-03T00:58:32;98843.09;;;17.12;59.84
70374;BME280;57792;49.198;7.890;2022-08-03T00:59:32;98835.41;;;17.06;60.02
70374;BME280;57792;49.198;7.890;2022-08-03T01:00:34;98835.50;;;17.04;60.16
70374;BME280;57792;49.198;7.890;2022-08-03T01:01:37;98833.31;;;16.97;60.48
70374;BME280;57792;49.198;7.890;2022-08-03T01:02:38;98837.63;;;16.99;60.10
70374;BME280;57792;49.198;7.890;2022-08-03T01:03:40;98834.84;;;17.01;60.24
70374;BME280;57792;49.198;7.890;2022-08-03T01:04:40;98837.94;;;16.95;60.56
70374;BME280;57792;49.198;7.890;2022-08-03T01:05:54;98839.38;;;16.86;61.52
70374;BME280;57792;49.198;7.890;2022-08-03T01:10:01;98829.72;;;16.55;62.59
70374;BME280;57792;49.198;7.890;2022-08-03T01:11:28;98833.88;;;16.61;62.08
70374;BME280;57792;49.198;7.890;2022-08-03T01:12:43;98834.56;;;16.50;62.83
70374;BME280;57792;49.198;7.890;2022-08-03T01:15:30;98835.00;;;16.57;62.54
70374;BME280;57792;49.198;7.890;2022-08-03T01:18:27;98827.03;;;16.55;61.61
70374;BME280;57792;49.198;7.890;2022-08-03T01:20:43;98822.31;;;16.59;62.05
70374;BME280;57792;49.198;7.890;2022-08-03T01:30:46;98829.25;;;16.20;62.59
70374;BME280;57792;49.198;7.890;2022-08-03T01:31:52;98821.66;;;16.27;63.34
70374;BME280;57792;49.198;7.890;2022-08-03T01:33:01;98806.09;;;16.32;63.03
70374;BME280;57792;49.198;7.890;2022-08-03T01:34:05;98821.38;;;16.31;63.39
70374;BME280;57792;49.198;7.890;2022-08-03T01:35:21;98819.06;;;16.25;63.81
70374;BME280;57792;49.198;7.890;2022-08-03T01:36:32;98828.00;;;16.26;63.83
70374;BME280;57792;49.198;7.890;2022-08-03T01:37:40;98814.94;;;16.34;63.22
70374;BME280;57792;49.198;7.890;2022-08-03T01:38:50;98817.34;;;16.38;63.05
70374;BME280;57792;49.198;7.890;2022-08-03T01:39:55;98816.00;;;16.31;63.05
70374;BME280;57792;49.198;7.890;2022-08-03T01:41:03;98815.72;;;16.36;62.41
70374;BME280;57792;49.198;7.890;2022-08-03T01:42:06;98817.06;;;16.43;62.05
70374;BME280;57792;49.198;7.890;2022-08-03T01:43:09;98815.22;;;16.43;62.19
70374;BME280;57792;49.198;7.890;2022-08-03T01:44:11;98808.22;;;16.41;62.06
70374;BME280;57792;49.198;7.890;2022-08-03T01:45:14;98812.44;;;16.45;62.11
70374;BME280;57792;49.198;7.890;2022-08-03T01:46:17;98804.47;;;16.43;61.85
70374;BME280;57792;49.198;7.890;2022-08-03T01:47:20;98810.63;;;16.45;61.79
70374;BME280;57792;49.198;7.890;2022-08-03T01:48:22;98805.81;;;16.36;62.22
70374;BME280;57792;49.198;7.890;2022-08-03T01:49:23;98816.69;;;16.35;62.38
70374;BME280;57792;49.198;7.890;2022-08-03T01:50:26;98807.06;;;16.31;63.03
70374;BME280;57792;49.198;7.890;2022-08-03T01:51:29;98812.94;;;16.37;62.31
70374;BME280;57792;49.198;7.890;2022-08-03T01:52:31;98807.63;;;16.36;62.31
70374;BME280;57792;49.198;7.890;2022-08-03T01:53:33;98806.38;;;16.41;62.36
70374;BME280;57792;49.198;7.890;2022-08-03T01:54:37;98811.78;;;16.41;61.96
70374;BME280;57792;49.198;7.890;2022-08-03T01:55:42;98812.84;;;16.39;62.50
70374;BME280;57792;49.198;7.890;2022-08-03T01:56:44;98816.19;;;16.42;62.24
70374;BME280;57792;49.198;7.890;2022-08-03T01:57:47;98811.88;;;16.40;61.96
70374;BME280;57792;49.198;7.890;2022-08-03T01:58:49;98811.09;;;16.38;62.33
70374;BME280;57792;49.198;7.890;2022-08-03T01:59:54;98804.28;;;16.32;62.63
70374;BME280;57792;49.198;7.890;2022-08-03T02:00:56;98811.59;;;16.30;62.47
70374;BME280;57792;49.198;7.890;2022-08-03T02:02:00;98813.31;;;16.31;62.53
70374;BME280;57792;49.198;7.890;2022-08-03T02:03:05;98809.38;;;16.23;62.93
70374;BME280;57792;49.198;7.890;2022-08-03T02:04:06;98803.91;;;16.24;62.64
70374;BME280;57792;49.198;7.890;2022-08-03T02:05:09;98806.78;;;16.21;62.61
70374;BME280;57792;49.198;7.890;2022-08-03T02:06:12;98798.06;;;16.18;62.92
70374;BME280;57792;49.198;7.890;2022-08-03T02:07:14;98813.63;;;16.12;63.49
70374;BME280;57792;49.198;7.890;2022-08-03T02:08:16;98802.78;;;16.14;63.09
70374;BME280;57792;49.198;7.890;2022-08-03T02:09:19;98811.78;;;16.13;63.32
70374;BME280;57792;49.198;7.890;2022-08-03T02:10:20;98807.56;;;16.09;63.49
70374;BME280;57792;49.198;7.890;2022-08-03T02:11:22;98807.56;;;16.09;63.50
70374;BME280;57792;49.198;7.890;2022-08-03T02:12:24;98804.19;;;16.05;63.57
70374;BME280;57792;49.198;7.890;2022-08-03T02:13:26;98809.50;;;16.07;63.55
70374;BME280;57792;49.198;7.890;2022-08-03T02:14:29;98809.69;;;16.04;63.48
70374;BME280;57792;49.198;7.890;2022-08-03T02:15:31;98809.19;;;16.11;62.98
70374;BME280;57792;49.198;7.890;2022-08-03T02:16:32;98808.44;;;16.09;63.31
70374;BME280;57792;49.198;7.890;2022-08-03T02:17:34;98815.53;;;16.10;62.90
70374;BME280;57792;49.198;7.890;2022-08-03T02:18:36;98810.91;;;15.98;63.92
70374;BME280;57792;49.198;7.890;2022-08-03T02:19:40;98811.00;;;15.97;64.11
70374;BME280;57792;49.198;7.890;2022-08-03T02:20:42;98811.50;;;16.03;63.33
70374;BME280;57792;49.198;7.890;2022-08-03T02:21:45;98803.34;;;16.05;63.22
70374;BME280;57792;49.198;7.890;2022-08-03T02:22:46;98815.63;;;16.09;62.92
70374;BME280;57792;49.198;7.890;2022-08-03T02:23:46;98811.22;;;16.08;63.13
70374;BME280;57792;49.198;7.890;2022-08-03T02:24:47;98806.03;;;16.05;63.25
70374;BME280;57792;49.198;7.890;2022-08-03T02:25:52;98805.44;;;16.00;64.01
70374;BME280;57792;49.198;7.890;2022-08-03T02:26:55;98806.50;;;15.97;63.86
70374;BME280;57792;49.198;7.890;2022-08-03T02:28:10;98808.03;;;16.01;63.72
70374;BME280;57792;49.198;7.890;2022-08-03T02:29:22;98808.22;;;15.98;64.18
70374;BME280;57792;49.198;7.890;2022-08-03T02:30:30;98810.25;;;15.95;63.94
70374;BME280;57792;49.198;7.890;2022-08-03T02:31:36;98808.41;;;15.95;64.29
70374;BME280;57792;49.198;7.890;2022-08-03T02:32:39;98809.47;;;15.93;63.60
70374;BME280;57792;49.198;7.890;2022-08-03T02:33:48;98798.25;;;15.86;63.84
70374;BME280;57792;49.198;7.890;2022-08-03T02:34:50;98802.63;;;15.87;63.57
70374;BME280;57792;49.198;7.890;2022-08-03T02:35:53;98802.56;;;15.74;64.73
70374;BME280;57792;49.198;7.890;2022-08-03T02:36:57;98802.28;;;15.63;65.31
70374;BME280;57792;49.198;7.890;2022-08-03T02:38:02;98803.78;;;15.69;64.84
70374;BME280;57792;49.198;7.890;2022-08-03T02:39:03;98799.00;;;15.74;64.25
70374;BME280;57792;49.198;7.890;2022-08-03T02:40:06;98799.09;;;15.72;64.44
70374;BME280;57792;49.198;7.890;2022-08-03T02:41:14;98804.97;;;15.79;64.86
70374;BME280;57792;49.198;7.890;2022-08-03T02:42:17;98800.44;;;15.79;64.22
70374;BME280;57792;49.198;7.890;2022-08-03T02:43:20;98812.75;;;15.84;63.82
70374;BME280;57792;49.198;7.890;2022-08-03T02:44:24;98806.41;;;15.85;63.66
70374;BME280;57792;49.198;7.890;2022-08-03T02:45:26;98801.09;;;15.69;64.33
70374;BME280;57792;49.198;7.890;2022-08-03T02:46:32;98804.94;;;15.65;65.08
70374;BME280;57792;49.198;7.890;2022-08-03T02:47:35;98805.06;;;15.62;64.67
70374;BME280;57792;49.198;7.890;2022-08-03T02:48:37;98805.94;;;15.62;64.82
70374;BME280;57792;49.198;7.890;2022-08-03T02:49:41;98813.22;;;15.60;64.63
70374;BME280;57792;49.198;7.890;2022-08-03T02:50:43;98802.06;;;15.68;64.51
70374;BME280;57792;49.198;7.890;2022-08-03T02:51:46;98808.38;;;15.67;64.62
70374;BME280;57792;49.198;7.890;2022-08-03T02:52:48;98804.56;;;15.71;64.32
70374;BME280;57792;49.198;7.890;2022-08-03T02:53:50;98808.19;;;15.70;64.63
70374;BME280;57792;49.198;7.890;2022-08-03T02:54:54;98801.34;;;15.64;64.52
70374;BME280;57792;49.198;7.890;2022-08-03T02:55:55;98793.47;;;15.61;64.66
70374;BME280;57792;49.198;7.890;2022-08-03T02:56:57;98807.66;;;15.63;64.83
70374;BME280;57792;49.198;7.890;2022-08-03T02:57:59;98803.16;;;15.64;64.23
70374;BME280;57792;49.198;7.890;2022-08-03T02:59:03;98798.16;;;15.58;64.94
70374;BME280;57792;49.198;7.890;2022-08-03T03:00:07;98799.03;;;15.58;64.44
70374;BME280;57792;49.198;7.890;2022-08-03T03:01:08;98797.38;;;15.56;64.95
70374;BME280;57792;49.198;7.890;2022-08-03T03:02:10;98806.41;;;15.55;65.06
70374;BME280;57792;49.198;7.890;2022-08-03T03:03:12;98803.84;;;15.53;64.68
70374;BME280;57792;49.198;7.890;2022-08-03T03:04:14;98792.31;;;15.51;64.68
70374;BME280;57792;49.198;7.890;2022-08-03T03:05:15;98794.69;;;15.56;64.86
70374;BME280;57792;49.198;7.890;2022-08-03T03:06:16;98801.16;;;15.53;64.78
70374;BME280;57792;49.198;7.890;2022-08-03T03:07:19;98794.59;;;15.57;64.28
70374;BME280;57792;49.198;7.890;2022-08-03T03:08:20;98799.59;;;15.49;65.43
70374;BME280;57792;49.198;7.890;2022-08-03T03:09:21;98800.47;;;15.50;65.01
70374;BME280;57792;49.198;7.890;2022-08-03T03:10:22;98789.31;;;15.41;65.35
70374;BME280;57792;49.198;7.890;2022-08-03T03:11:24;98791.72;;;15.46;64.97
70374;BME280;57792;49.198;7.890;2022-08-03T03:12:26;98800.91;;;15.42;65.86
70374;BME280;57792;49.198;7.890;2022-08-03T03:13:28;98793.81;;;15.41;65.44
70374;BME280;57792;49.198;7.890;2022-08-03T03:14:29;98795.03;;;15.35;65.53
70374;BME280;57792;49.198;7.890;2022-08-03T03:15:31;98796.88;;;15.35;65.59
70374;BME280;57792;49.198;7.890;2022-08-03T03:16:35;98803.97;;;15.36;65.56
70374;BME280;57792;49.198;7.890;2022-08-03T03:17:36;98801.38;;;15.34;65.77
70374;BME280;57792;49.198;7.890;2022-08-03T03:18:37;98790.91;;;15.30;65.67
70374;BME280;57792;49.198;7.890;2022-08-03T03:19:38;98797.31;;;15.27;66.19
70374;BME280;57792;49.198;7.890;2022-08-03T03:20:40;98793.50;;;15.31;65.62
70374;BME280;57792;49.198;7.890;2022-08-03T03:21:42;98791.75;;;15.30;65.83
70374;BME280;57792;49.198;7.890;2022-08-03T03:22:44;98797.13;;;15.30;66.00
70374;BME280;57792;49.198;7.890;2022-08-03T03:23:46;98793.41;;;15.33;65.40
70374;BME280;57792;49.198;7.890;2022-08-03T03:24:48;98796.78;;;15.36;65.52
70374;BME280;57792;49.198;7.890;2022-08-03T03:25:51;98800.41;;;15.35;65.57
70374;BME280;57792;49.198;7.890;2022-08-03T03:26:52;98803.38;;;15.31;65.53
70374;BME280;57792;49.198;7.890;2022-08-03T03:27:53;98796.34;;;15.28;65.54
70374;BME280;57792;49.198;7.890;2022-08-03T03:28:54;98789.25;;;15.27;65.41
70374;BME280;57792;49.198;7.890;2022-08-03T03:29:56;98792.34;;;15.35;65.15
70374;BME280;57792;49.198;7.890;2022-08-03T03:30:57;98793.41;;;15.33;65.44
70374;BME280;57792;49.198;7.890;2022-08-03T03:31:58;98790.44;;;15.37;65.27
70374;BME280;57792;49.198;7.890;2022-08-03T03:32:58;98789.66;;;15.35;65.08
70374;BME280;57792;49.198;7.890;2022-08-03T03:33:58;98795.22;;;15.32;65.35
70374;BME280;57792;49.198;7.890;2022-08-03T03:34:59;98791.75;;;15.30;65.26
70374;BME280;57792;49.198;7.890;2022-08-03T03:36:00;98791.84;;;15.29;65.28
70374;BME280;57792;49.198;7.890;2022-08-03T03:37:01;98793.56;;;15.30;65.49
70374;BME280;57792;49.198;7.890;2022-08-03T03:38:02;98798.00;;;15.31;65.35
70374;BME280;57792;49.198;7.890;2022-08-03T03:39:02;98790.38;;;15.23;65.66
70374;BME280;57792;49.198;7.890;2022-08-03T03:40:03;98797.22;;;15.29;65.24
70374;BME280;57792;49.198;7.890;2022-08-03T03:41:04;98794.81;;;15.24;65.72
70374;BME280;57792;49.198;7.890;2022-08-03T03:42:05;98794.72;;;15.26;65.59
70374;BME280;57792;49.198;7.890;2022-08-03T03:43:07;98798.16;;;15.13;66.21
70374;BME280;57792;49.198;7.890;2022-08-03T03:44:07;98795.28;;;15.17;65.78
70374;BME280;57792;49.198;7.890;2022-08-03T03:45:08;98794.59;;;15.13;65.70
70374;BME280;57792;49.198;7.890;2022-08-03T03:46:11;98799.09;;;15.12;66.13
70374;BME280;57792;49.198;7.890;2022-08-03T03:47:12;98797.97;;;15.17;66.01
70374;BME280;57792;49.198;7.890;2022-08-03T03:48:13;98797.38;;;15.11;65.98
70374;BME280;57792;49.198;7.890;2022-08-03T03:49:13;98797.78;;;15.20;65.47
70374;BME280;57792;49.198;7.890;2022-08-03T03:50:14;98790.09;;;15.13;65.82
70374;BME280;57792;49.198;7.890;2022-08-03T03:51:17;98798.84;;;15.17;66.06
70374;BME280;57792;49.198;7.890;2022-08-03T03:52:17;98805.25;;;15.15;65.89
70374;BME280;57792;49.198;7.890;2022-08-03T03:53:18;98804.91;;;15.21;65.51
70374;BME280;57792;49.198;7.890;2022-08-03T03:54:19;98792.31;;;15.21;65.57
70374;BME280;57792;49.198;7.890;2022-08-03T03:55:20;98806.63;;;15.22;65.95
70374;BME280;57792;49.198;7.890;2022-08-03T03:56:21;98795.09;;;15.20;65.75
70374;BME280;57792;49.198;7.890;2022-08-03T03:57:21;98807.28;;;15.25;65.69
70374;BME280;57792;49.198;7.890;2022-08-03T03:58:22;98801.44;;;15.19;65.76
70374;BME280;57792;49.198;7.890;2022-08-03T03:59:22;98801.53;;;15.17;65.54
70374;BME280;57792;49.198;7.890;2022-08-03T04:00:22;98799.00;;;15.14;65.67
70374;BME280;57792;49.198;7.890;2022-08-03T04:01:23;98806.81;;;15.19;65.64
70374;BME280;57792;49.198;7.890;2022-08-03T04:02:23;98801.78;;;15.12;66.01
70374;BME280;57792;49.198;7.890;2022-08-03T04:03:24;98804.47;;;15.12;66.00
70374;BME280;57792;49.198;7.890;2022-08-03T04:04:24;98794.78;;;15.10;66.28
70374;BME280;57792;49.198;7.890;2022-08-03T04:05:43;98803.78;;;15.09;65.97
70374;BME280;57792;49.198;7.890;2022-08-03T04:07:02;98797.13;;;15.00;66.09
70374;BME280;57792;49.198;7.890;2022-08-03T04:08:21;98798.06;;;14.99;66.23
70374;BME280;57792;49.198;7.890;2022-08-03T04:09:41;98797.91;;;15.02;66.28
70374;BME280;57792;49.198;7.890;2022-08-03T04:11:22;98804.09;;;14.89;67.51
70374;BME280;57792;49.198;7.890;2022-08-03T04:12:25;98797.13;;;15.00;66.75
70374;BME280;57792;49.198;7.890;2022-08-03T04:14:39;98799.63;;;15.03;66.47
70374;BME280;57792;49.198;7.890;2022-08-03T04:15:41;98797.72;;;15.05;66.51
70374;BME280;57792;49.198;7.890;2022-08-03T04:16:45;98796.69;;;15.08;66.42
70374;BME280;57792;49.198;7.890;2022-08-03T04:17:47;98787.94;;;15.04;66.49
70374;BME280;57792;49.198;7.890;2022-08-03T04:18:55;98798.50;;;15.07;66.86
70374;BME280;57792;49.198;7.890;2022-08-03T04:19:58;98791.41;;;15.06;66.50
70374;BME280;57792;49.198;7.890;2022-08-03T04:21:02;98794.09;;;15.06;66.45
70374;BME280;57792;49.198;7.890;2022-08-03T04:22:06;98793.22;;;15.06;66.45
70374;BME280;57792;49.198;7.890;2022-08-03T04:23:07;98790.63;;;15.04;66.10
70374;BME280;57792;49.198;7.890;2022-08-03T04:24:09;98800.50;;;15.04;66.34
70374;BME280;57792;49.198;7.890;2022-08-03T04:25:13;98794.00;;;15.08;66.64
70374;BME280;57792;49.198;7.890;2022-08-03T04:26:19;98799.72;;;15.02;66.64
70374;BME280;57792;49.198;7.890;2022-08-03T04:27:23;98795.13;;;15.04;66.14
70374;BME280;57792;49.198;7.890;2022-08-03T04:28:25;98789.84;;;15.02;66.32
70374;BME280;57792;49.198;7.890;2022-08-03T04:29:27;98789.84;;;15.02;66.46
70374;BME280;57792;49.198;7.890;2022-08-03T04:30:29;98786.28;;;15.02;66.20
70374;BME280;57792;49.198;7.890;2022-08-03T04:31:30;98791.41;;;15.06;66.31
70374;BME280;57792;49.198;7.890;2022-08-03T04:32:31;98793.41;;;15.03;66.49
70374;BME280;57792;49.198;7.890;2022-08-03T04:33:34;98799.53;;;15.05;66.51
70374;BME280;57792;49.198;7.890;2022-08-03T04:34:36;98799.47;;;15.06;66.44
70374;BME280;57792;49.198;7.890;2022-08-03T04:35:36;98798.41;;;15.09;66.29
70374;BME280;57792;49.198;7.890;2022-08-03T04:36:44;98800.41;;;15.05;67.22
70374;BME280;57792;49.198;7.890;2022-08-03T04:37:48;98796.69;;;15.08;66.43
70374;BME280;57792;49.198;7.890;2022-08-03T04:39:16;98800.16;;;14.94;67.67
70374;BME280;57792;49.198;7.890;2022-08-03T04:40:30;98795.91;;;14.90;67.77
70374;BME280;57792;49.198;7.890;2022-08-03T04:41:33;98804.50;;;14.97;67.15
70374;BME280;57792;49.198;7.890;2022-08-03T04:42:36;98803.44;;;14.99;66.99
70374;BME280;57792;49.198;7.890;2022-08-03T04:43:38;98805.88;;;15.04;66.69
70374;BME280;57792;49.198;7.890;2022-08-03T04:44:43;98806.66;;;15.06;67.00
70374;BME280;57792;49.198;7.890;2022-08-03T04:45:46;98806.47;;;15.09;66.88
70374;BME280;57792;49.198;7.890;2022-08-03T04:46:47;98808.72;;;15.17;66.67
70374;BME280;57792;49.198;7.890;2022-08-03T04:47:49;98805.63;;;15.23;66.24
70374;BME280;57792;49.198;7.890;2022-08-03T04:48:50;98805.44;;;15.11;66.61
70374;BME280;57792;49.198;7.890;2022-08-03T04:49:51;98808.72;;;15.17;66.41
70374;BME280;57792;49.198;7.890;2022-08-03T04:50:52;98805.25;;;15.15;66.38
70374;BME280;57792;49.198;7.890;2022-08-03T04:51:53;98804.03;;;15.20;66.45
70374;BME280;57792;49.198;7.890;2022-08-03T04:52:54;98810.25;;;15.21;66.52
70374;BME280;57792;49.198;7.890;2022-08-03T04:53:55;98812.75;;;15.24;66.42
70374;BME280;57792;49.198;7.890;2022-08-03T04:54:55;98800.94;;;15.26;66.50
70374;BME280;57792;49.198;7.890;2022-08-03T04:56:03;98802.66;;;15.13;67.27
70374;BME280;57792;49.198;7.890;2022-08-03T04:57:04;98806.28;;;15.12;66.79
70374;BME280;57792;49.198;7.890;2022-08-03T04:58:05;98812.97;;;15.05;67.46
70374;BME280;57792;49.198;7.890;2022-08-03T04:59:05;98812.16;;;15.19;66.96
70374;BME280;57792;49.198;7.890;2022-08-03T05:00:06;98817.25;;;15.23;66.63
70374;BME280;57792;49.198;7.890;2022-08-03T05:01:07;98812.47;;;15.28;66.41
70374;BME280;57792;49.198;7.890;2022-08-03T05:02:07;98804.31;;;15.30;66.52
70374;BME280;57792;49.198;7.890;2022-08-03T05:03:08;98810.78;;;15.41;66.36
70374;BME280;57792;49.198;7.890;2022-08-03T05:04:08;98816.44;;;15.37;66.56
70374;BME280;57792;49.198;7.890;2022-08-03T05:05:09;98814.44;;;15.40;66.39
70374;BME280;57792;49.198;7.890;2022-08-03T05:06:11;98813.50;;;15.41;66.09
70374;BME280;57792;49.198;7.890;2022-08-03T05:07:12;98813.31;;;15.44;66.12
70374;BME280;57792;49.198;7.890;2022-08-03T05:08:13;98812.97;;;15.35;66.78
70374;BME280;57792;49.198;7.890;2022-08-03T05:09:13;98816.00;;;15.44;66.33
70374;BME280;57792;49.198;7.890;2022-08-03T05:10:14;98806.56;;;15.37;66.29
70374;BME280;57792;49.198;7.890;2022-08-03T05:11:15;98819.13;;;15.37;66.76
70374;BME280;57792;49.198;7.890;2022-08-03T05:12:15;98818.09;;;15.39;67.08
70374;BME280;57792;49.198;7.890;2022-08-03T05:13:16;98822.22;;;15.45;66.66
70374;BME280;57792;49.198;7.890;2022-08-03T05:14:16;98817.53;;;15.49;66.33
70374;BME280;57792;49.198;7.890;2022-08-03T05:15:17;98818.69;;;15.59;66.27
70374;BME280;57792;49.198;7.890;2022-08-03T05:16:17;98818.28;;;15.66;66.15
70374;BME280;57792;49.198;7.890;2022-08-03T05:17:17;98817.41;;;15.66;66.15
70374;BME280;57792;49.198;7.890;2022-08-03T05:18:18;98818.09;;;15.69;66.02
70374;BME280;57792;49.198;7.890;2022-08-03T05:19:19;98815.41;;;15.69;66.01
70374;BME280;57792;49.198;7.890;2022-08-03T05:20:19;98814.94;;;15.77;65.80
70374;BME280;57792;49.198;7.890;2022-08-03T05:21:20;98821.00;;;15.81;65.82
70374;BME280;57792;49.198;7.890;2022-08-03T05:22:21;98819.53;;;15.89;65.51
70374;BME280;57792;49.198;7.890;2022-08-03T05:23:21;98816.66;;;15.92;65.64
70374;BME280;57792;49.198;7.890;2022-08-03T05:24:22;98820.13;;;15.94;65.76
70374;BME280;57792;49.198;7.890;2022-08-03T05:25:22;98822.22;;;15.89;66.17
70374;BME280;57792;49.198;7.890;2022-08-03T05:26:23;98820.13;;;15.94;65.57
70374;BME280;57792;49.198;7.890;2022-08-03T05:27:23;98821.88;;;15.81;66.21
70374;BME280;57792;49.198;7.890;2022-08-03T05:28:23;98818.31;;;15.81;65.97
70374;BME280;57792;49.198;7.890;2022-08-03T05:29:24;98822.81;;;15.94;65.78
70374;BME280;57792;49.198;7.890;2022-08-03T05:30:24;98825.72;;;16.05;65.44
70374;BME280;57792;49.198;7.890;2022-08-03T05:31:25;98829.66;;;16.14;65.39
70374;BME280;57792;49.198;7.890;2022-08-03T05:32:25;98824.09;;;16.17;65.14
70374;BME280;57792;49.198;7.890;2022-08-03T05:33:25;98822.44;;;16.29;65.00
70374;BME280;57792;49.198;7.890;2022-08-03T05:34:26;98818.31;;;16.37;64.75
70374;BME280;57792;49.198;7.890;2022-08-03T05:35:26;98816.88;;;16.32;65.03
70374;BME280;57792;49.198;7.890;2022-08-03T05:36:27;98816.28;;;16.41;64.69
70374;BME280;57792;49.198;7.890;2022-08-03T05:37:28;98811.00;;;16.39;64.63
70374;BME280;57792;49.198;7.890;2022-08-03T05:38:28;98814.06;;;16.62;64.10
70374;BME280;57792;49.198;7.890;2022-08-03T05:39:29;98817.41;;;16.79;64.05
70374;BME280;57792;49.198;7.890;2022-08-03T05:40:29;98821.00;;;16.93;63.84
70374;BME280;57792;49.198;7.890;2022-08-03T05:41:29;98812.31;;;17.02;63.07
70374;BME280;57792;49.198;7.890;2022-08-03T05:42:30;98816.56;;;17.19;62.58
70374;BME280;57792;49.198;7.890;2022-08-03T05:43:30;98813.72;;;17.34;62.19
70374;BME280;57792;49.198;7.890;2022-08-03T05:44:31;98814.72;;;17.46;62.26
70374;BME280;57792;49.198;7.890;2022-08-03T05:45:31;98817.50;;;17.71;61.58
70374;BME280;57792;49.198;7.890;2022-08-03T05:46:32;98811.78;;;18.01;61.06
70374;BME280;57792;49.198;7.890;2022-08-03T05:47:32;98817.69;;;18.19;60.69
70374;BME280;57792;49.198;7.890;2022-08-03T05:48:32;98811.03;;;18.37;60.35
70374;BME280;57792;49.198;7.890;2022-08-03T05:49:33;98816.06;;;18.55;59.24